sensor_id;sensor_type;location;lat;lon;timestamp;P1;durP1;ratioP1;P2;durP2;ratioP2
53594;SDS011;39479;45.720;11.310;2023-04-03T00:02:10;2.75;;;1.90;;
53594;SDS011;39479;45.720;11.310;2023-04-03T00:04:36;2.45;;;2.08;;
53594;SDS011;39479;45.720;11.310;2023-04-03T00:07:02;1.85;;;1.75;;
53594;SDS011;39479;45.720;11.310;2023-04-03T00:09:28;2.33;;;2.13;;
53594;SDS011;39479;45.720;11.310;2023-04-03T00:11:54;3.38;;;2.25;;
53594;SDS011;39479;45.720;11.310;2023-04-03T00:14:20;2.42;;;2.22;;
53594;SDS011;39479;45.720;11.310;2023-04-03T00:16:46;2.63;;;2.28;;
53594;SDS011;39479;45.720;11.310;2023-04-03T00:19:12;2.22;;;1.90;;
53594;SDS011;39479;45.720;11.310;2023-04-03T00:21:38;2.50;;;2.08;;
53594;SDS011;39479;45.720;11.310;2023-04-03T00:24:05;3.05;;;2.03;;
53594;SDS011;39479;45.720;11.310;2023-04-03T00:26:31;2.25;;;2.05;;
53594;SDS011;39479;45.720;11.310;2023-04-03T00:28:57;2.05;;;1.95;;
53594;SDS011;39479;45.720;11.310;2023-04-03T00:31:23;2.25;;;1.80;;
53594;SDS011;39479;45.720;11.310;2023-04-03T00:33:50;2.35;;;1.90;;
53594;SDS011;39479;45.720;11.310;2023-04-03T00:36:16;2.00;;;1.60;;
53594;SDS011;39479;45.720;11.310;2023-04-03T00:38:42;2.00;;;1.80;;
53594;SDS011;39479;45.720;11.310;2023-04-03T00:41:08;1.65;;;1.50;;
53594;SDS011;39479;45.720;11.310;2023-04-03T00:43:34;1.48;;;1.38;;
53594;SDS011;39479;45.720;11.310;2023-04-03T00:46:00;0.93;;;0.93;;
53594;SDS011;39479;45.720;11.310;2023-04-03T00:48:31;2.47;;;1.42;;
53594;SDS011;39479;45.720;11.310;2023-04-03T00:50:58;0.88;;;0.85;;
53594;SDS011;39479;45.720;11.310;2023-04-03T00:53:25;1.50;;;1.40;;
53594;SDS011;39479;45.720;11.310;2023-04-03T00:55:53;1.38;;;1.27;;
53594;SDS011;39479;45.720;11.310;2023-04-03T00:58:20;1.50;;;1.40;;
53594;SDS011;39479;45.720;11.310;2023-04-03T01:00:50;1.33;;;1.30;;
53594;SDS011;39479;45.720;11.310;2023-04-03T01:03:21;1.33;;;1.30;;
53594;SDS011;39479;45.720;11.310;2023-04-03T01:05:47;2.22;;;1.90;;
53594;SDS011;39479;45.720;11.310;2023-04-03T01:08:14;2.00;;;1.90;;
53594;SDS011;39479;45.720;11.310;2023-04-03T01:10:40;2.40;;;2.20;;
53594;SDS011;39479;45.720;11.310;2023-04-03T01:16:08;1.98;;;1.80;;
53594;SDS011;39479;45.720;11.310;2023-04-03T01:18:35;1.98;;;1.67;;
53594;SDS011;39479;45.720;11.310;2023-04-03T01:21:09;1.60;;;1.50;;
53594;SDS011;39479;45.720;11.310;2023-04-03T01:23:59;2.03;;;1.83;;
53594;SDS011;39479;45.720;11.310;2023-04-03T01:26:28;1.70;;;1.60;;
53594;SDS011;39479;45.720;11.310;2023-04-03T01:28:55;2.03;;;1.80;;
53594;SDS011;39479;45.720;11.310;2023-04-03T01:31:29;1.55;;;1.45;;
53594;SDS011;39479;45.720;11.310;2023-04-03T01:33:57;2.22;;;2.03;;
53594;SDS011;39479;45.720;11.310;2023-04-03T01:36:25;3.20;;;2.15;;
53594;SDS011;39479;45.720;11.310;2023-04-03T01:38:52;1.63;;;1.52;;
53594;SDS011;39479;45.720;11.310;2023-04-03T01:41:18;1.73;;;1.48;;
53594;SDS011;39479;45.720;11.310;2023-04-03T01:43:46;1.35;;;1.35;;
53594;SDS011;39479;45.720;11.310;2023-04-03T01:46:12;1.35;;;1.35;;
53594;SDS011;39479;45.720;11.310;2023-04-03T01:48:38;1.20;;;1.05;;
53594;SDS011;39479;45.720;11.310;2023-04-03T01:51:04;1.13;;;1.10;;
53594;SDS011;39479;45.720;11.310;2023-04-03T01:53:30;1.50;;;1.30;;
53594;SDS011;39479;45.720;11.310;2023-04-03T01:55:56;1.13;;;1.02;;
53594;SDS011;39479;45.720;11.310;2023-04-03T01:58:22;1.40;;;1.30;;
53594;SDS011;39479;45.720;11.310;2023-04-03T02:00:48;1.52;;;1.42;;
53594;SDS011;39479;45.720;11.310;2023-04-03T02:03:14;1.70;;;1.60;;
53594;SDS011;39479;45.720;11.310;2023-04-03T02:05:40;1.65;;;1.55;;
53594;SDS011;39479;45.720;11.310;2023-04-03T02:08:06;1.83;;;1.52;;
53594;SDS011;39479;45.720;11.310;2023-04-03T02:10:33;2.63;;;1.50;;
53594;SDS011;39479;45.720;11.310;2023-04-03T02:12:59;1.38;;;1.33;;
53594;SDS011;39479;45.720;11.310;2023-04-03T02:15:25;1.20;;;1.20;;
53594;SDS011;39479;45.720;11.310;2023-04-03T02:17:51;2.00;;;1.40;;
53594;SDS011;39479;45.720;11.310;2023-04-03T02:20:17;1.98;;;1.33;;
53594;SDS011;39479;45.720;11.310;2023-04-03T02:22:43;1.15;;;0.93;;
53594;SDS011;39479;45.720;11.310;2023-04-03T02:25:09;2.67;;;1.27;;
53594;SDS011;39479;45.720;11.310;2023-04-03T02:27:36;1.65;;;1.52;;
53594;SDS011;39479;45.720;11.310;2023-04-03T02:30:02;1.70;;;1.55;;
53594;SDS011;39479;45.720;11.310;2023-04-03T02:32:29;1.55;;;1.45;;
53594;SDS011;39479;45.720;11.310;2023-04-03T02:34:55;1.60;;;1.50;;
53594;SDS011;39479;45.720;11.310;2023-04-03T02:37:21;1.75;;;1.65;;
53594;SDS011;39479;45.720;11.310;2023-04-03T02:39:47;1.20;;;1.20;;
53594;SDS011;39479;45.720;11.310;2023-04-03T02:42:13;1.98;;;1.50;;
53594;SDS011;39479;45.720;11.310;2023-04-03T02:44:39;1.10;;;1.10;;
53594;SDS011;39479;45.720;11.310;2023-04-03T02:47:05;1.15;;;1.15;;
53594;SDS011;39479;45.720;11.310;2023-04-03T02:49:31;1.77;;;1.60;;
53594;SDS011;39479;45.720;11.310;2023-04-03T02:51:57;1.48;;;1.42;;
53594;SDS011;39479;45.720;11.310;2023-04-03T02:54:23;1.92;;;1.67;;
53594;SDS011;39479;45.720;11.310;2023-04-03T02:56:53;1.63;;;1.52;;
53594;SDS011;39479;45.720;11.310;2023-04-03T02:59:19;1.80;;;1.70;;
53594;SDS011;39479;45.720;11.310;2023-04-03T03:01:45;1.80;;;1.70;;
53594;SDS011;39479;45.720;11.310;2023-04-03T03:04:11;2.03;;;1.52;;
53594;SDS011;39479;45.720;11.310;2023-04-03T03:06:37;2.20;;;1.80;;
53594;SDS011;39479;45.720;11.310;2023-04-03T03:09:04;1.45;;;1.35;;
53594;SDS011;39479;45.720;11.310;2023-04-03T03:11:30;2.78;;;1.60;;
53594;SDS011;39479;45.720;11.310;2023-04-03T03:13:56;1.52;;;1.42;;
53594;SDS011;39479;45.720;11.310;2023-04-03T03:16:22;2.13;;;1.70;;
53594;SDS011;39479;45.720;11.310;2023-04-03T03:18:48;1.38;;;1.27;;
53594;SDS011;39479;45.720;11.310;2023-04-03T03:21:14;1.73;;;1.63;;
53594;SDS011;39479;45.720;11.310;2023-04-03T03:23:40;3.03;;;1.70;;
53594;SDS011;39479;45.720;11.310;2023-04-03T03:26:08;1.92;;;1.80;;
53594;SDS011;39479;45.720;11.310;2023-04-03T03:28:35;2.38;;;1.85;;
53594;SDS011;39479;45.720;11.310;2023-04-03T03:31:01;2.42;;;1.80;;
53594;SDS011;39479;45.720;11.310;2023-04-03T03:33:27;1.70;;;1.60;;
53594;SDS011;39479;45.720;11.310;2023-04-03T03:35:54;2.15;;;2.03;;
53594;SDS011;39479;45.720;11.310;2023-04-03T03:38:20;2.25;;;2.10;;
53594;SDS011;39479;45.720;11.310;2023-04-03T03:40:47;2.05;;;1.95;;
53594;SDS011;39479;45.720;11.310;2023-04-03T03:43:13;2.20;;;2.10;;
53594;SDS011;39479;45.720;11.310;2023-04-03T03:45:40;2.20;;;2.10;;
53594;SDS011;39479;45.720;11.310;2023-04-03T03:48:06;4.07;;;2.08;;
53594;SDS011;39479;45.720;11.310;2023-04-03T03:50:32;3.00;;;1.52;;
53594;SDS011;39479;45.720;11.310;2023-04-03T03:52:58;1.70;;;1.60;;
53594;SDS011;39479;45.720;11.310;2023-04-03T03:55:24;2.38;;;2.00;;
53594;SDS011;39479;45.720;11.310;2023-04-03T03:57:51;2.08;;;1.80;;
53594;SDS011;39479;45.720;11.310;2023-04-03T04:00:17;1.77;;;1.67;;
53594;SDS011;39479;45.720;11.310;2023-04-03T04:02:43;1.90;;;1.80;;
53594;SDS011;39479;45.720;11.310;2023-04-03T04:05:09;2.25;;;2.00;;
53594;SDS011;39479;45.720;11.310;2023-04-03T04:07:35;2.08;;;1.88;;
53594;SDS011;39479;45.720;11.310;2023-04-03T04:10:02;1.90;;;1.80;;
53594;SDS011;39479;45.720;11.310;2023-04-03T04:12:28;2.45;;;2.00;;
53594;SDS011;39479;45.720;11.310;2023-04-03T04:14:54;2.00;;;1.85;;
53594;SDS011;39479;45.720;11.310;2023-04-03T04:17:20;2.08;;;1.88;;
53594;SDS011;39479;45.720;11.310;2023-04-03T04:19:46;1.70;;;1.60;;
53594;SDS011;39479;45.720;11.310;2023-04-03T04:22:12;2.70;;;2.03;;
53594;SDS011;39479;45.720;11.310;2023-04-03T04:24:38;2.72;;;1.92;;
53594;SDS011;39479;45.720;11.310;2023-04-03T04:27:05;2.35;;;2.03;;
53594;SDS011;39479;45.720;11.310;2023-04-03T04:29:30;2.33;;;2.03;;
53594;SDS011;39479;45.720;11.310;2023-04-03T04:32:00;2.03;;;1.90;;
53594;SDS011;39479;45.720;11.310;2023-04-03T04:34:26;2.10;;;2.00;;
53594;SDS011;39479;45.720;11.310;2023-04-03T04:36:52;2.30;;;2.08;;
53594;SDS011;39479;45.720;11.310;2023-04-03T04:39:18;2.45;;;1.80;;
53594;SDS011;39479;45.720;11.310;2023-04-03T04:41:44;3.25;;;2.13;;
53594;SDS011;39479;45.720;11.310;2023-04-03T04:44:10;2.50;;;2.30;;
53594;SDS011;39479;45.720;11.310;2023-04-03T04:46:36;2.17;;;2.00;;
53594;SDS011;39479;45.720;11.310;2023-04-03T04:49:02;2.10;;;2.00;;
53594;SDS011;39479;45.720;11.310;2023-04-03T04:51:28;2.00;;;1.80;;
53594;SDS011;39479;45.720;11.310;2023-04-03T04:53:54;1.85;;;1.75;;
53594;SDS011;39479;45.720;11.310;2023-04-03T04:56:20;1.90;;;1.80;;
53594;SDS011;39479;45.720;11.310;2023-04-03T04:58:46;1.98;;;1.88;;
53594;SDS011;39479;45.720;11.310;2023-04-03T05:01:12;2.40;;;2.20;;
53594;SDS011;39479;45.720;11.310;2023-04-03T05:03:38;2.38;;;2.20;;
53594;SDS011;39479;45.720;11.310;2023-04-03T05:06:05;2.50;;;2.30;;
53594;SDS011;39479;45.720;11.310;2023-04-03T05:08:31;2.55;;;2.22;;
53594;SDS011;39479;45.720;11.310;2023-04-03T05:10:57;5.03;;;2.28;;
53594;SDS011;39479;45.720;11.310;2023-04-03T05:13:23;2.95;;;2.75;;
53594;SDS011;39479;45.720;11.310;2023-04-03T05:15:49;2.40;;;2.20;;
53594;SDS011;39479;45.720;11.310;2023-04-03T05:18:16;2.90;;;2.20;;
53594;SDS011;39479;45.720;11.310;2023-04-03T05:20:41;3.17;;;2.42;;
53594;SDS011;39479;45.720;11.310;2023-04-03T05:23:08;2.80;;;2.30;;
53594;SDS011;39479;45.720;11.310;2023-04-03T05:25:37;3.50;;;2.50;;
53594;SDS011;39479;45.720;11.310;2023-04-03T05:28:03;3.40;;;2.53;;
53594;SDS011;39479;45.720;11.310;2023-04-03T05:30:30;3.03;;;2.28;;
53594;SDS011;39479;45.720;11.310;2023-04-03T05:32:56;2.90;;;2.40;;
53594;SDS011;39479;45.720;11.310;2023-04-03T05:35:22;2.88;;;2.50;;
53594;SDS011;39479;45.720;11.310;2023-04-03T05:37:48;2.70;;;2.50;;
53594;SDS011;39479;45.720;11.310;2023-04-03T05:40:14;2.90;;;2.58;;
53594;SDS011;39479;45.720;11.310;2023-04-03T05:42:40;4.65;;;3.55;;
53594;SDS011;39479;45.720;11.310;2023-04-03T05:45:06;3.30;;;3.00;;
53594;SDS011;39479;45.720;11.310;2023-04-03T05:47:32;3.85;;;2.90;;
53594;SDS011;39479;45.720;11.310;2023-04-03T05:49:58;4.63;;;3.63;;
53594;SDS011;39479;45.720;11.310;2023-04-03T05:52:28;3.70;;;2.92;;
53594;SDS011;39479;45.720;11.310;2023-04-03T05:54:54;3.60;;;3.30;;
53594;SDS011;39479;45.720;11.310;2023-04-03T05:57:20;4.68;;;3.35;;
53594;SDS011;39479;45.720;11.310;2023-04-03T05:59:47;3.95;;;2.60;;
53594;SDS011;39479;45.720;11.310;2023-04-03T06:02:14;3.88;;;2.15;;
53594;SDS011;39479;45.720;11.310;2023-04-03T06:04:40;3.85;;;2.47;;
53594;SDS011;39479;45.720;11.310;2023-04-03T06:07:06;3.65;;;2.40;;
53594;SDS011;39479;45.720;11.310;2023-04-03T06:09:33;2.33;;;2.20;;
53594;SDS011;39479;45.720;11.310;2023-04-03T06:11:59;2.28;;;2.08;;
53594;SDS011;39479;45.720;11.310;2023-04-03T06:14:26;3.20;;;2.55;;
53594;SDS011;39479;45.720;11.310;2023-04-03T06:16:52;4.65;;;3.33;;
53594;SDS011;39479;45.720;11.310;2023-04-03T06:19:19;3.95;;;3.47;;
53594;SDS011;39479;45.720;11.310;2023-04-03T06:21:45;3.95;;;3.35;;
53594;SDS011;39479;45.720;11.310;2023-04-03T06:24:12;4.95;;;3.53;;
53594;SDS011;39479;45.720;11.310;2023-04-03T06:26:40;4.53;;;3.17;;
53594;SDS011;39479;45.720;11.310;2023-04-03T06:29:06;4.75;;;3.50;;
53594;SDS011;39479;45.720;11.310;2023-04-03T06:31:32;3.53;;;3.10;;
53594;SDS011;39479;45.720;11.310;2023-04-03T06:33:58;3.70;;;3.22;;
53594;SDS011;39479;45.720;11.310;2023-04-03T06:36:25;4.00;;;2.97;;
53594;SDS011;39479;45.720;11.310;2023-04-03T06:38:51;3.75;;;2.88;;
53594;SDS011;39479;45.720;11.310;2023-04-03T06:41:17;4.82;;;2.90;;
53594;SDS011;39479;45.720;11.310;2023-04-03T06:43:44;3.42;;;2.60;;
53594;SDS011;39479;45.720;11.310;2023-04-03T06:46:16;2.83;;;2.63;;
53594;SDS011;39479;45.720;11.310;2023-04-03T06:48:43;3.03;;;2.72;;
53594;SDS011;39479;45.720;11.310;2023-04-03T06:51:13;6.25;;;3.55;;
53594;SDS011;39479;45.720;11.310;2023-04-03T06:53:40;5.25;;;3.85;;
53594;SDS011;39479;45.720;11.310;2023-04-03T06:56:07;5.35;;;3.95;;
53594;SDS011;39479;45.720;11.310;2023-04-03T06:58:33;7.03;;;4.22;;
53594;SDS011;39479;45.720;11.310;2023-04-03T07:00:59;6.75;;;4.32;;
53594;SDS011;39479;45.720;11.310;2023-04-03T07:03:25;6.70;;;3.95;;
53594;SDS011;39479;45.720;11.310;2023-04-03T07:05:52;4.50;;;3.92;;
53594;SDS011;39479;45.720;11.310;2023-04-03T07:08:18;5.38;;;3.45;;
53594;SDS011;39479;45.720;11.310;2023-04-03T07:10:44;4.78;;;3.70;;
53594;SDS011;39479;45.720;11.310;2023-04-03T07:13:10;5.55;;;4.45;;
53594;SDS011;39479;45.720;11.310;2023-04-03T07:15:36;9.88;;;5.80;;
53594;SDS011;39479;45.720;11.310;2023-04-03T07:18:02;31.92;;;18.80;;
53594;SDS011;39479;45.720;11.310;2023-04-03T07:20:30;8.73;;;6.95;;
53594;SDS011;39479;45.720;11.310;2023-04-03T07:22:57;9.40;;;8.30;;
53594;SDS011;39479;45.720;11.310;2023-04-03T07:25:23;8.85;;;7.05;;
53594;SDS011;39479;45.720;11.310;2023-04-03T07:27:49;10.90;;;6.55;;
53594;SDS011;39479;45.720;11.310;2023-04-03T07:30:15;4.32;;;3.92;;
53594;SDS011;39479;45.720;11.310;2023-04-03T07:32:41;5.03;;;3.65;;
53594;SDS011;39479;45.720;11.310;2023-04-03T07:35:07;5.53;;;4.43;;
53594;SDS011;39479;45.720;11.310;2023-04-03T07:37:33;6.55;;;4.15;;
53594;SDS011;39479;45.720;11.310;2023-04-03T07:39:59;6.95;;;4.15;;
53594;SDS011;39479;45.720;11.310;2023-04-03T07:42:27;4.22;;;3.83;;
53594;SDS011;39479;45.720;11.310;2023-04-03T07:44:53;6.13;;;3.95;;
53594;SDS011;39479;45.720;11.310;2023-04-03T07:47:19;5.93;;;3.55;;
53594;SDS011;39479;45.720;11.310;2023-04-03T07:49:46;4.97;;;3.88;;
53594;SDS011;39479;45.720;11.310;2023-04-03T07:52:13;5.25;;;3.40;;
53594;SDS011;39479;45.720;11.310;2023-04-03T07:54:40;7.30;;;3.67;;
53594;SDS011;39479;45.720;11.310;2023-04-03T07:57:06;4.30;;;3.28;;
53594;SDS011;39479;45.720;11.310;2023-04-03T07:59:32;4.97;;;3.53;;
53594;SDS011;39479;45.720;11.310;2023-04-03T08:01:58;10.70;;;7.47;;
53594;SDS011;39479;45.720;11.310;2023-04-03T08:04:24;4.80;;;4.13;;
53594;SDS011;39479;45.720;11.310;2023-04-03T08:06:51;6.13;;;3.40;;
53594;SDS011;39479;45.720;11.310;2023-04-03T08:09:17;4.80;;;3.30;;
53594;SDS011;39479;45.720;11.310;2023-04-03T08:11:44;6.22;;;3.65;;
53594;SDS011;39479;45.720;11.310;2023-04-03T08:14:11;6.03;;;3.95;;
53594;SDS011;39479;45.720;11.310;2023-04-03T08:16:41;5.80;;;3.50;;
53594;SDS011;39479;45.720;11.310;2023-04-03T08:19:08;5.90;;;3.28;;
53594;SDS011;39479;45.720;11.310;2023-04-03T08:21:35;4.28;;;3.63;;
53594;SDS011;39479;45.720;11.310;2023-04-03T08:24:01;4.53;;;3.08;;
53594;SDS011;39479;45.720;11.310;2023-04-03T08:26:29;4.05;;;3.13;;
53594;SDS011;39479;45.720;11.310;2023-04-03T08:28:55;4.78;;;3.30;;
53594;SDS011;39479;45.720;11.310;2023-04-03T08:31:21;4.70;;;3.30;;
53594;SDS011;39479;45.720;11.310;2023-04-03T08:33:48;7.40;;;3.08;;
53594;SDS011;39479;45.720;11.310;2023-04-03T08:36:24;5.63;;;3.72;;
53594;SDS011;39479;45.720;11.310;2023-04-03T08:38:51;6.60;;;4.00;;
53594;SDS011;39479;45.720;11.310;2023-04-03T08:49:38;4.90;;;3.30;;
53594;SDS011;39479;45.720;11.310;2023-04-03T08:52:09;5.10;;;3.50;;
53594;SDS011;39479;45.720;11.310;2023-04-03T08:54:41;4.03;;;3.22;;
53594;SDS011;39479;45.720;11.310;2023-04-03T08:57:13;4.22;;;3.78;;
53594;SDS011;39479;45.720;11.310;2023-04-03T08:59:39;4.85;;;3.30;;
53594;SDS011;39479;45.720;11.310;2023-04-03T09:02:23;6.65;;;3.80;;
53594;SDS011;39479;45.720;11.310;2023-04-03T09:04:51;6.28;;;3.70;;
53594;SDS011;39479;45.720;11.310;2023-04-03T09:07:20;6.32;;;5.05;;
53594;SDS011;39479;45.720;11.310;2023-04-03T09:09:48;9.85;;;6.22;;
53594;SDS011;39479;45.720;11.310;2023-04-03T09:17:22;5.93;;;4.15;;
53594;SDS011;39479;45.720;11.310;2023-04-03T09:20:02;7.55;;;5.18;;
53594;SDS011;39479;45.720;11.310;2023-04-03T09:22:31;5.88;;;4.78;;
53594;SDS011;39479;45.720;11.310;2023-04-03T09:24:59;6.80;;;4.47;;
53594;SDS011;39479;45.720;11.310;2023-04-03T09:27:26;11.00;;;5.30;;
53594;SDS011;39479;45.720;11.310;2023-04-03T09:29:56;4.22;;;3.83;;
53594;SDS011;39479;45.720;11.310;2023-04-03T09:32:32;7.40;;;5.03;;
53594;SDS011;39479;45.720;11.310;2023-04-03T09:35:04;5.38;;;4.22;;
53594;SDS011;39479;45.720;11.310;2023-04-03T09:40:03;5.95;;;4.70;;
53594;SDS011;39479;45.720;11.310;2023-04-03T09:42:30;8.13;;;5.45;;
53594;SDS011;39479;45.720;11.310;2023-04-03T09:45:00;5.78;;;4.68;;
53594;SDS011;39479;45.720;11.310;2023-04-03T09:47:30;5.90;;;5.00;;
53594;SDS011;39479;45.720;11.310;2023-04-03T09:52:43;9.88;;;5.68;;
53594;SDS011;39479;45.720;11.310;2023-04-03T09:57:42;7.63;;;5.03;;
53594;SDS011;39479;45.720;11.310;2023-04-03T10:00:52;14.73;;;6.25;;
53594;SDS011;39479;45.720;11.310;2023-04-03T10:02:57;9.80;;;6.60;;
53594;SDS011;39479;45.720;11.310;2023-04-03T10:07:53;6.68;;;4.43;;
53594;SDS011;39479;45.720;11.310;2023-04-03T10:10:32;5.07;;;4.57;;
53594;SDS011;39479;45.720;11.310;2023-04-03T10:13:10;6.80;;;4.60;;
53594;SDS011;39479;45.720;11.310;2023-04-03T10:15:42;5.75;;;4.72;;
53594;SDS011;39479;45.720;11.310;2023-04-03T10:20:43;7.90;;;4.50;;
53594;SDS011;39479;45.720;11.310;2023-04-03T10:23:15;5.78;;;4.43;;
53594;SDS011;39479;45.720;11.310;2023-04-03T10:31:15;7.32;;;4.70;;
53594;SDS011;39479;45.720;11.310;2023-04-03T10:36:29;8.15;;;4.32;;
53594;SDS011;39479;45.720;11.310;2023-04-03T10:41:49;5.53;;;4.72;;
53594;SDS011;39479;45.720;11.310;2023-04-03T10:44:30;7.85;;;4.68;;
53594;SDS011;39479;45.720;11.310;2023-04-03T10:49:31;7.32;;;4.53;;
53594;SDS011;39479;45.720;11.310;2023-04-03T10:52:10;6.78;;;4.78;;
53594;SDS011;39479;45.720;11.310;2023-04-03T10:54:40;5.80;;;4.03;;
53594;SDS011;39479;45.720;11.310;2023-04-03T10:57:09;14.95;;;6.82;;
53594;SDS011;39479;45.720;11.310;2023-04-03T11:02:07;8.75;;;5.32;;
53594;SDS011;39479;45.720;11.310;2023-04-03T11:04:37;6.30;;;5.23;;
53594;SDS011;39479;45.720;11.310;2023-04-03T11:07:10;7.25;;;5.47;;
53594;SDS011;39479;45.720;11.310;2023-04-03T11:09:38;10.38;;;7.50;;
53594;SDS011;39479;45.720;11.310;2023-04-03T11:12:25;6.15;;;4.70;;
53594;SDS011;39479;45.720;11.310;2023-04-03T11:14:53;8.95;;;4.95;;
53594;SDS011;39479;45.720;11.310;2023-04-03T11:20:03;12.25;;;8.30;;
53594;SDS011;39479;45.720;11.310;2023-04-03T11:22:33;9.75;;;5.28;;
53594;SDS011;39479;45.720;11.310;2023-04-03T11:27:43;9.70;;;5.60;;
53594;SDS011;39479;45.720;11.310;2023-04-03T11:33:15;10.15;;;6.03;;
53594;SDS011;39479;45.720;11.310;2023-04-03T11:35:45;10.05;;;5.60;;
53594;SDS011;39479;45.720;11.310;2023-04-03T11:38:14;9.05;;;5.85;;
53594;SDS011;39479;45.720;11.310;2023-04-03T11:40:43;6.57;;;5.03;;
53594;SDS011;39479;45.720;11.310;2023-04-03T11:45:50;8.95;;;5.30;;
53594;SDS011;39479;45.720;11.310;2023-04-03T11:50:45;6.70;;;5.30;;
53594;SDS011;39479;45.720;11.310;2023-04-03T11:55:42;9.35;;;5.40;;
53594;SDS011;39479;45.720;11.310;2023-04-03T12:13:33;12.10;;;5.97;;
53594;SDS011;39479;45.720;11.310;2023-04-03T12:15:59;7.43;;;5.80;;
53594;SDS011;39479;45.720;11.310;2023-04-03T12:21:17;6.03;;;4.93;;
53594;SDS011;39479;45.720;11.310;2023-04-03T12:29:18;7.53;;;5.47;;
53594;SDS011;39479;45.720;11.310;2023-04-03T12:31:49;9.13;;;5.32;;
53594;SDS011;39479;45.720;11.310;2023-04-03T12:39:55;7.00;;;5.15;;
53594;SDS011;39479;45.720;11.310;2023-04-03T12:42:47;6.75;;;5.32;;
53594;SDS011;39479;45.720;11.310;2023-04-03T12:45:22;6.88;;;5.53;;
53594;SDS011;39479;45.720;11.310;2023-04-03T12:47:49;7.18;;;5.18;;
53594;SDS011;39479;45.720;11.310;2023-04-03T12:50:22;7.55;;;5.65;;
53594;SDS011;39479;45.720;11.310;2023-04-03T12:52:54;7.85;;;5.18;;
53594;SDS011;39479;45.720;11.310;2023-04-03T12:55:22;6.03;;;5.35;;
53594;SDS011;39479;45.720;11.310;2023-04-03T12:57:48;10.77;;;9.77;;
53594;SDS011;39479;45.720;11.310;2023-04-03T13:00:18;6.13;;;5.53;;
53594;SDS011;39479;45.720;11.310;2023-04-03T13:02:44;9.23;;;6.18;;
53594;SDS011;39479;45.720;11.310;2023-04-03T13:05:13;9.02;;;5.40;;
53594;SDS011;39479;45.720;11.310;2023-04-03T13:07:40;8.43;;;5.45;;
53594;SDS011;39479;45.720;11.310;2023-04-03T13:12:35;6.32;;;5.60;;
53594;SDS011;39479;45.720;11.310;2023-04-03T13:15:11;6.88;;;5.35;;
53594;SDS011;39479;45.720;11.310;2023-04-03T13:17:38;8.05;;;6.05;;
53594;SDS011;39479;45.720;11.310;2023-04-03T13:20:16;7.13;;;6.30;;
53594;SDS011;39479;45.720;11.310;2023-04-03T13:23:05;7.97;;;5.75;;
53594;SDS011;39479;45.720;11.310;2023-04-03T13:25:31;7.32;;;5.90;;
53594;SDS011;39479;45.720;11.310;2023-04-03T13:27:58;8.15;;;5.70;;
53594;SDS011;39479;45.720;11.310;2023-04-03T13:30:27;9.18;;;6.00;;
53594;SDS011;39479;45.720;11.310;2023-04-03T13:32:54;9.93;;;5.85;;
53594;SDS011;39479;45.720;11.310;2023-04-03T13:37:54;8.80;;;6.00;;
53594;SDS011;39479;45.720;11.310;2023-04-03T13:40:21;14.10;;;9.07;;
53594;SDS011;39479;45.720;11.310;2023-04-03T13:42:48;9.85;;;7.90;;
53594;SDS011;39479;45.720;11.310;2023-04-03T13:45:25;8.25;;;6.60;;
53594;SDS011;39479;45.720;11.310;2023-04-03T13:48:05;8.77;;;7.07;;
53594;SDS011;39479;45.720;11.310;2023-04-03T13:50:32;7.95;;;6.53;;
53594;SDS011;39479;45.720;11.310;2023-04-03T13:53:03;11.43;;;6.80;;
53594;SDS011;39479;45.720;11.310;2023-04-03T13:55:32;7.25;;;6.20;;
53594;SDS011;39479;45.720;11.310;2023-04-03T13:58:00;7.03;;;5.88;;
53594;SDS011;39479;45.720;11.310;2023-04-03T14:08:26;7.75;;;6.03;;
53594;SDS011;39479;45.720;11.310;2023-04-03T14:10:52;10.18;;;5.78;;
53594;SDS011;39479;45.720;11.310;2023-04-03T14:13:19;9.43;;;6.63;;
53594;SDS011;39479;45.720;11.310;2023-04-03T14:15:46;9.63;;;6.00;;
53594;SDS011;39479;45.720;11.310;2023-04-03T14:18:14;6.13;;;5.63;;
53594;SDS011;39479;45.720;11.310;2023-04-03T14:20:41;8.77;;;6.05;;
53594;SDS011;39479;45.720;11.310;2023-04-03T14:23:07;7.57;;;6.20;;
53594;SDS011;39479;45.720;11.310;2023-04-03T14:25:33;7.68;;;5.63;;
53594;SDS011;39479;45.720;11.310;2023-04-03T14:28:00;8.55;;;6.18;;
53594;SDS011;39479;45.720;11.310;2023-04-03T14:32:52;9.02;;;5.63;;
53594;SDS011;39479;45.720;11.310;2023-04-03T14:35:18;9.60;;;6.30;;
53594;SDS011;39479;45.720;11.310;2023-04-03T14:37:45;5.80;;;5.20;;
53594;SDS011;39479;45.720;11.310;2023-04-03T14:40:14;9.77;;;5.35;;
53594;SDS011;39479;45.720;11.310;2023-04-03T14:42:40;9.43;;;6.35;;
53594;SDS011;39479;45.720;11.310;2023-04-03T14:45:09;7.63;;;6.82;;
53594;SDS011;39479;45.720;11.310;2023-04-03T14:47:36;8.18;;;6.97;;
53594;SDS011;39479;45.720;11.310;2023-04-03T14:50:07;8.68;;;7.18;;
53594;SDS011;39479;45.720;11.310;2023-04-03T14:52:34;7.65;;;6.45;;
53594;SDS011;39479;45.720;11.310;2023-04-03T14:55:00;8.00;;;6.03;;
53594;SDS011;39479;45.720;11.310;2023-04-03T14:57:27;6.40;;;5.60;;
53594;SDS011;39479;45.720;11.310;2023-04-03T14:59:54;7.35;;;6.65;;
53594;SDS011;39479;45.720;11.310;2023-04-03T15:02:30;6.60;;;5.70;;
53594;SDS011;39479;45.720;11.310;2023-04-03T15:04:57;8.02;;;5.90;;
53594;SDS011;39479;45.720;11.310;2023-04-03T15:07:24;8.65;;;5.80;;
53594;SDS011;39479;45.720;11.310;2023-04-03T15:09:51;8.10;;;5.55;;
53594;SDS011;39479;45.720;11.310;2023-04-03T15:12:17;7.32;;;5.55;;
53594;SDS011;39479;45.720;11.310;2023-04-03T15:14:43;7.95;;;5.72;;
53594;SDS011;39479;45.720;11.310;2023-04-03T15:17:17;7.03;;;6.05;;
53594;SDS011;39479;45.720;11.310;2023-04-03T15:19:43;6.40;;;5.68;;
53594;SDS011;39479;45.720;11.310;2023-04-03T15:22:13;10.38;;;5.65;;
53594;SDS011;39479;45.720;11.310;2023-04-03T15:24:41;5.75;;;5.15;;
53594;SDS011;39479;45.720;11.310;2023-04-03T15:27:07;6.22;;;5.38;;
53594;SDS011;39479;45.720;11.310;2023-04-03T15:29:33;11.43;;;5.30;;
53594;SDS011;39479;45.720;11.310;2023-04-03T15:31:59;9.05;;;6.15;;
53594;SDS011;39479;45.720;11.310;2023-04-03T15:34:25;6.93;;;5.13;;
53594;SDS011;39479;45.720;11.310;2023-04-03T15:36:51;16.70;;;10.27;;
53594;SDS011;39479;45.720;11.310;2023-04-03T15:39:17;8.20;;;6.90;;
53594;SDS011;39479;45.720;11.310;2023-04-03T15:41:44;7.32;;;5.75;;
53594;SDS011;39479;45.720;11.310;2023-04-03T15:44:10;8.70;;;5.30;;
53594;SDS011;39479;45.720;11.310;2023-04-03T15:46:37;10.73;;;6.32;;
53594;SDS011;39479;45.720;11.310;2023-04-03T15:49:04;9.30;;;5.60;;
53594;SDS011;39479;45.720;11.310;2023-04-03T15:51:30;6.68;;;5.05;;
53594;SDS011;39479;45.720;11.310;2023-04-03T15:53:56;7.40;;;4.90;;
53594;SDS011;39479;45.720;11.310;2023-04-03T15:56:22;7.50;;;5.50;;
53594;SDS011;39479;45.720;11.310;2023-04-03T15:58:48;5.82;;;5.15;;
53594;SDS011;39479;45.720;11.310;2023-04-03T16:01:14;8.82;;;6.20;;
53594;SDS011;39479;45.720;11.310;2023-04-03T16:03:40;12.00;;;6.57;;
53594;SDS011;39479;45.720;11.310;2023-04-03T16:06:10;7.50;;;5.68;;
53594;SDS011;39479;45.720;11.310;2023-04-03T16:08:36;10.23;;;6.47;;
53594;SDS011;39479;45.720;11.310;2023-04-03T16:11:02;8.07;;;5.78;;
53594;SDS011;39479;45.720;11.310;2023-04-03T16:13:29;14.63;;;10.02;;
53594;SDS011;39479;45.720;11.310;2023-04-03T16:15:55;14.20;;;9.38;;
53594;SDS011;39479;45.720;11.310;2023-04-03T16:18:21;8.50;;;7.40;;
53594;SDS011;39479;45.720;11.310;2023-04-03T16:20:48;9.43;;;7.13;;
53594;SDS011;39479;45.720;11.310;2023-04-03T16:23:14;6.97;;;5.60;;